sensor_id;sensor_type;location;lat;lon;timestamp;pressure;altitude;pressure_sealevel;temperature;humidity
9899;BME280;4988;49.238;6.698;2023-12-20T00:01:15;99316.91;;;4.03;100.00
9899;BME280;4988;49.238;6.698;2023-12-20T00:03:41;99327.41;;;4.05;100.00
9899;BME280;4988;49.238;6.698;2023-12-20T00:06:06;99317.72;;;4.05;100.00
9899;BME280;4988;49.238;6.698;2023-12-20T00:08:32;99323.88;;;4.06;100.00
9899;BME280;4988;49.238;6.698;2023-12-20T00:10:57;99318.59;;;4.07;100.00
9899;BME280;4988;49.238;6.698;2023-12-20T00:13:22;99317.69;;;4.08;100.00
9899;BME280;4988;49.238;6.698;2023-12-20T00:15:48;99318.47;;;4.13;100.00
9899;BME280;4988;49.238;6.698;2023-12-20T00:18:13;99314.97;;;4.14;100.00
9899;BME280;4988;49.238;6.698;2023-12-20T00:20:38;99314.06;;;4.14;100.00
9899;BME280;4988;49.238;6.698;2023-12-20T00:23:04;99320.19;;;4.16;100.00
9899;BME280;4988;49.238;6.698;2023-12-20T00:25:29;99317.53;;;4.17;100.00
9899;BME280;4988;49.238;6.698;2023-12-20T00:27:54;99309.63;;;4.19;100.00
9899;BME280;4988;49.238;6.698;2023-12-20T00:30:20;99310.44;;;4.21;100.00
9899;BME280;4988;49.238;6.698;2023-12-20T00:32:45;99301.59;;;4.24;100.00
9899;BME280;4988;49.238;6.698;2023-12-20T00:35:14;99302.47;;;4.26;100.00
9899;BME280;4988;49.238;6.698;2023-12-20T00:37:39;99298.97;;;4.25;100.00
9899;BME280;4988;49.238;6.698;2023-12-20T00:40:05;99299.78;;;4.29;100.00
9899;BME280;4988;49.238;6.698;2023-12-20T00:42:30;99305.06;;;4.27;100.00
9899;BME280;4988;49.238;6.698;2023-12-20T00:44:55;99303.31;;;4.28;100.00
9899;BME280;4988;49.238;6.698;2023-12-20T00:47:21;99299.78;;;4.29;100.00
9899;BME280;4988;49.238;6.698;2023-12-20T00:49:47;99296.22;;;4.30;100.00
9899;BME280;4988;49.238;6.698;2023-12-20T00:52:12;99293.59;;;4.30;100.00
9899;BME280;4988;49.238;6.698;2023-12-20T00:54:37;99302.34;;;4.32;100.00
9899;BME280;4988;49.238;6.698;2023-12-20T00:57:03;99299.72;;;4.32;100.00
9899;BME280;4988;49.238;6.698;2023-12-20T00:59:28;99291.78;;;4.35;100.00
9899;BME280;4988;49.238;6.698;2023-12-20T01:01:53;99284.72;;;4.35;100.00
9899;BME280;4988;49.238;6.698;2023-12-20T01:04:19;99276.78;;;4.37;100.00
9899;BME280;4988;49.238;6.698;2023-12-20T01:06:44;99283.75;;;4.41;100.00
9899;BME280;4988;49.238;6.698;2023-12-20T01:09:09;99288.94;;;4.44;100.00
9899;BME280;4988;49.238;6.698;2023-12-20T01:11:35;99302.91;;;4.49;100.00
9899;BME280;4988;49.238;6.698;2023-12-20T01:14:00;99301.06;;;4.55;100.00
9899;BME280;4988;49.238;6.698;2023-12-20T01:16:25;99307.16;;;4.57;100.00
9899;BME280;4988;49.238;6.698;2023-12-20T01:18:51;99299.25;;;4.57;100.00
9899;BME280;4988;49.238;6.698;2023-12-20T01:21:16;99295.72;;;4.58;100.00
9899;BME280;4988;49.238;6.698;2023-12-20T01:23:41;99298.31;;;4.59;100.00
9899;BME280;4988;49.238;6.698;2023-12-20T01:26:06;99298.31;;;4.59;100.00
9899;BME280;4988;49.238;6.698;2023-12-20T01:28:32;99300.84;;;4.65;100.00
9899;BME280;4988;49.238;6.698;2023-12-20T01:30:57;99289.47;;;4.63;100.00
9899;BME280;4988;49.238;6.698;2023-12-20T01:33:23;99302.47;;;4.74;100.00
9899;BME280;4988;49.238;6.698;2023-12-20T01:35:48;99296.09;;;4.85;100.00
9899;BME280;4988;49.238;6.698;2023-12-20T01:38:14;99291.91;;;4.74;100.00
9899;BME280;4988;49.238;6.698;2023-12-20T01:40:39;99292.75;;;4.75;100.00
9899;BME280;4988;49.238;6.698;2023-12-20T01:43:08;99299.81;;;4.74;100.00
9899;BME280;4988;49.238;6.698;2023-12-20T01:45:34;99298.84;;;4.78;100.00
9899;BME280;4988;49.238;6.698;2023-12-20T01:48:00;99300.38;;;4.89;100.00
9899;BME280;4988;49.238;6.698;2023-12-20T01:50:28;99307.41;;;4.90;100.00
9899;BME280;4988;49.238;6.698;2023-12-20T01:52:55;99317.78;;;4.99;100.00
9899;BME280;4988;49.238;6.698;2023-12-20T01:55:23;99316.72;;;5.06;100.00
9899;BME280;4988;49.238;6.698;2023-12-20T01:57:50;99309.88;;;4.99;100.00
9899;BME280;4988;49.238;6.698;2023-12-20T02:00:16;99315.97;;;5.03;100.00
9899;BME280;4988;49.238;6.698;2023-12-20T02:02:43;99318.56;;;5.04;100.00
9899;BME280;4988;49.238;6.698;2023-12-20T02:05:10;99311.53;;;5.03;100.00
9899;BME280;4988;49.238;6.698;2023-12-20T02:07:36;99320.31;;;5.04;100.00
9899;BME280;4988;49.238;6.698;2023-12-20T02:10:02;99320.16;;;5.11;100.00
9899;BME280;4988;49.238;6.698;2023-12-20T02:12:27;99320.19;;;5.10;100.00
9899;BME280;4988;49.238;6.698;2023-12-20T02:14:52;99316.72;;;5.08;100.00
9899;BME280;4988;49.238;6.698;2023-12-20T02:17:19;99307.88;;;5.10;100.00
9899;BME280;4988;49.238;6.698;2023-12-20T02:19:44;99296.56;;;5.05;100.00
9899;BME280;4988;49.238;6.698;2023-12-20T02:22:10;99298.34;;;5.03;100.00
9899;BME280;4988;49.238;6.698;2023-12-20T02:24:36;99311.44;;;5.08;100.00
9899;BME280;4988;49.238;6.698;2023-12-20T02:27:01;99314.09;;;5.06;100.00
9899;BME280;4988;49.238;6.698;2023-12-20T02:29:27;99309.75;;;5.05;100.00
9899;BME280;4988;49.238;6.698;2023-12-20T02:31:52;99315.78;;;5.10;100.00
9899;BME280;4988;49.238;6.698;2023-12-20T02:34:17;99320.13;;;5.13;100.00
9899;BME280;4988;49.238;6.698;2023-12-20T02:36:43;99314.00;;;5.12;100.00
9899;BME280;4988;49.238;6.698;2023-12-20T02:39:08;99306.94;;;5.13;100.00
9899;BME280;4988;49.238;6.698;2023-12-20T02:41:33;99313.06;;;5.13;100.00
9899;BME280;4988;49.238;6.698;2023-12-20T02:43:59;99317.31;;;5.21;100.00
9899;BME280;4988;49.238;6.698;2023-12-20T02:46:24;99310.31;;;5.20;100.00
9899;BME280;4988;49.238;6.698;2023-12-20T02:48:49;99332.38;;;5.15;100.00
9899;BME280;4988;49.238;6.698;2023-12-20T02:51:15;99334.97;;;5.19;100.00
9899;BME280;4988;49.238;6.698;2023-12-20T02:53:40;99338.56;;;5.14;100.00
9899;BME280;4988;49.238;6.698;2023-12-20T02:56:06;99337.66;;;5.15;100.00
9899;BME280;4988;49.238;6.698;2023-12-20T02:58:31;99337.72;;;5.14;100.00
9899;BME280;4988;49.238;6.698;2023-12-20T03:00:56;99341.09;;;5.19;100.00
9899;BME280;4988;49.238;6.698;2023-12-20T03:03:21;99336.78;;;5.17;100.00
9899;BME280;4988;49.238;6.698;2023-12-20T03:05:47;99338.47;;;5.19;100.00
9899;BME280;4988;49.238;6.698;2023-12-20T03:08:12;99343.72;;;5.21;100.00
9899;BME280;4988;49.238;6.698;2023-12-20T03:10:37;99341.03;;;5.22;100.00
9899;BME280;4988;49.238;6.698;2023-12-20T03:13:03;99344.50;;;5.24;100.00
9899;BME280;4988;49.238;6.698;2023-12-20T03:15:28;99347.16;;;5.24;100.00
9899;BME280;4988;49.238;6.698;2023-12-20T03:17:53;99357.75;;;5.23;100.00
9899;BME280;4988;49.238;6.698;2023-12-20T03:20:19;99362.00;;;5.30;100.00
9899;BME280;4988;49.238;6.698;2023-12-20T03:22:44;99367.34;;;5.27;100.00
9899;BME280;4988;49.238;6.698;2023-12-20T03:25:09;99374.31;;;5.29;100.00
9899;BME280;4988;49.238;6.698;2023-12-20T03:27:37;99366.41;;;5.29;100.00
9899;BME280;4988;49.238;6.698;2023-12-20T03:30:04;99378.75;;;5.29;100.00
9899;BME280;4988;49.238;6.698;2023-12-20T03:32:29;99371.72;;;5.28;100.00
9899;BME280;4988;49.238;6.698;2023-12-20T03:34:55;99363.84;;;5.26;100.00
9899;BME280;4988;49.238;6.698;2023-12-20T03:37:21;99375.13;;;5.33;100.00
9899;BME280;4988;49.238;6.698;2023-12-20T03:39:47;99381.28;;;5.34;100.00
9899;BME280;4988;49.238;6.698;2023-12-20T03:42:12;99369.00;;;5.32;100.00
9899;BME280;4988;49.238;6.698;2023-12-20T03:44:39;99383.03;;;5.35;100.00
9899;BME280;4988;49.238;6.698;2023-12-20T03:47:05;99378.56;;;5.37;100.00
9899;BME280;4988;49.238;6.698;2023-12-20T03:49:30;99386.53;;;5.35;100.00
9899;BME280;4988;49.238;6.698;2023-12-20T03:51:55;99390.09;;;5.32;100.00
9899;BME280;4988;49.238;6.698;2023-12-20T03:54:21;99393.41;;;5.42;100.00
9899;BME280;4988;49.238;6.698;2023-12-20T03:56:46;99391.72;;;5.40;100.00
9899;BME280;4988;49.238;6.698;2023-12-20T03:59:11;99394.25;;;5.44;100.00
9899;BME280;4988;49.238;6.698;2023-12-20T04:01:37;99397.84;;;5.40;100.00
9899;BME280;4988;49.238;6.698;2023-12-20T04:04:02;99394.31;;;5.41;100.00
9899;BME280;4988;49.238;6.698;2023-12-20T04:06:28;99398.50;;;5.52;100.00
9899;BME280;4988;49.238;6.698;2023-12-20T04:08:53;99389.84;;;5.45;100.00
9899;BME280;4988;49.238;6.698;2023-12-20T04:11:18;99383.63;;;5.47;100.00
9899;BME280;4988;49.238;6.698;2023-12-20T04:13:43;99393.19;;;5.53;100.00
9899;BME280;4988;49.238;6.698;2023-12-20T04:16:09;99387.78;;;5.59;100.00
9899;BME280;4988;49.238;6.698;2023-12-20T04:18:34;99388.50;;;5.66;100.00
9899;BME280;4988;49.238;6.698;2023-12-20T04:20:59;99393.75;;;5.69;100.00
9899;BME280;4988;49.238;6.698;2023-12-20T04:23:25;99395.31;;;5.76;100.00
9899;BME280;4988;49.238;6.698;2023-12-20T04:25:50;99395.31;;;5.78;100.00
9899;BME280;4988;49.238;6.698;2023-12-20T04:28:15;99390.78;;;5.83;100.00
9899;BME280;4988;49.238;6.698;2023-12-20T04:30:41;99387.25;;;5.83;100.00
9899;BME280;4988;49.238;6.698;2023-12-20T04:33:07;99399.50;;;5.87;100.00
9899;BME280;4988;49.238;6.698;2023-12-20T04:35:32;99397.81;;;5.84;100.00
9899;BME280;4988;49.238;6.698;2023-12-20T04:37:57;99395.41;;;5.73;100.00
9899;BME280;4988;49.238;6.698;2023-12-20T04:40:23;99398.00;;;5.75;100.00
9899;BME280;4988;49.238;6.698;2023-12-20T04:42:48;99409.50;;;5.72;100.00
9899;BME280;4988;49.238;6.698;2023-12-20T04:45:13;99400.72;;;5.70;100.00
9899;BME280;4988;49.238;6.698;2023-12-20T04:47:41;99408.69;;;5.69;100.00
9899;BME280;4988;49.238;6.698;2023-12-20T04:50:07;99404.41;;;5.64;100.00
9899;BME280;4988;49.238;6.698;2023-12-20T04:52:33;99404.47;;;5.60;100.00
9899;BME280;4988;49.238;6.698;2023-12-20T04:54:58;99409.00;;;5.55;100.00
9899;BME280;4988;49.238;6.698;2023-12-20T04:57:24;99413.44;;;5.53;100.00
9899;BME280;4988;49.238;6.698;2023-12-20T04:59:49;99417.06;;;5.48;100.00
9899;BME280;4988;49.238;6.698;2023-12-20T05:02:15;99413.59;;;5.45;100.00
9899;BME280;4988;49.238;6.698;2023-12-20T05:04:40;99411.06;;;5.40;100.00
9899;BME280;4988;49.238;6.698;2023-12-20T05:07:06;99423.47;;;5.35;100.00
9899;BME280;4988;49.238;6.698;2023-12-20T05:09:32;99427.09;;;5.31;100.00
9899;BME280;4988;49.238;6.698;2023-12-20T05:11:57;99425.63;;;5.14;100.00
9899;BME280;4988;49.238;6.698;2023-12-20T05:14:22;99416.09;;;5.07;100.00
9899;BME280;4988;49.238;6.698;2023-12-20T05:16:47;99421.38;;;5.07;100.00
9899;BME280;4988;49.238;6.698;2023-12-20T05:19:13;99421.38;;;5.07;100.00
9899;BME280;4988;49.238;6.698;2023-12-20T05:21:39;99435.66;;;4.97;100.00
9899;BME280;4988;49.238;6.698;2023-12-20T05:24:05;99443.03;;;4.76;100.00
9899;BME280;4988;49.238;6.698;2023-12-20T05:26:30;99445.94;;;4.62;100.00
9899;BME280;4988;49.238;6.698;2023-12-20T05:28:56;99445.00;;;4.65;100.00
9899;BME280;4988;49.238;6.698;2023-12-20T05:31:21;99455.56;;;4.65;100.00
9899;BME280;4988;49.238;6.698;2023-12-20T05:33:46;99457.63;;;4.44;100.00
9899;BME280;4988;49.238;6.698;2023-12-20T05:36:12;99458.59;;;4.40;100.00
9899;BME280;4988;49.238;6.698;2023-12-20T05:38:39;99462.22;;;4.33;100.00
9899;BME280;4988;49.238;6.698;2023-12-20T05:41:04;99463.25;;;4.21;100.00
9899;BME280;4988;49.238;6.698;2023-12-20T05:43:30;99466.91;;;4.12;100.00
9899;BME280;4988;49.238;6.698;2023-12-20T05:45:55;99465.31;;;4.02;100.00
9899;BME280;4988;49.238;6.698;2023-12-20T05:48:20;99470.66;;;3.96;100.00
9899;BME280;4988;49.238;6.698;2023-12-20T05:50:46;99470.75;;;3.90;100.00
9899;BME280;4988;49.238;6.698;2023-12-20T05:53:11;99476.00;;;3.90;100.00
9899;BME280;4988;49.238;6.698;2023-12-20T05:55:36;99490.91;;;3.89;100.00
9899;BME280;4988;49.238;6.698;2023-12-20T05:58:02;99489.97;;;3.95;100.00
9899;BME280;4988;49.238;6.698;2023-12-20T06:00:28;99497.84;;;3.96;100.00
9899;BME280;4988;49.238;6.698;2023-12-20T06:02:53;99493.56;;;3.91;100.00
9899;BME280;4988;49.238;6.698;2023-12-20T06:05:18;99490.06;;;3.89;100.00
9899;BME280;4988;49.238;6.698;2023-12-20T06:07:45;99492.72;;;3.85;100.00
9899;BME280;4988;49.238;6.698;2023-12-20T06:10:12;99496.22;;;3.88;100.00
9899;BME280;4988;49.238;6.698;2023-12-20T06:12:39;99491.84;;;3.86;100.00
9899;BME280;4988;49.238;6.698;2023-12-20T06:15:04;99495.34;;;3.89;100.00
9899;BME280;4988;49.238;6.698;2023-12-20T06:17:31;99508.31;;;4.02;100.00
9899;BME280;4988;49.238;6.698;2023-12-20T06:19:56;99515.38;;;4.00;100.00
9899;BME280;4988;49.238;6.698;2023-12-20T06:22:22;99504.03;;;3.94;100.00
9899;BME280;4988;49.238;6.698;2023-12-20T06:24:47;99502.34;;;3.90;100.00
9899;BME280;4988;49.238;6.698;2023-12-20T06:27:12;99510.28;;;3.85;100.00
9899;BME280;4988;49.238;6.698;2023-12-20T06:29:38;99505.94;;;3.82;100.00
9899;BME280;4988;49.238;6.698;2023-12-20T06:32:04;99512.06;;;3.84;100.00
9899;BME280;4988;49.238;6.698;2023-12-20T06:34:29;99507.63;;;3.86;100.00
9899;BME280;4988;49.238;6.698;2023-12-20T06:36:54;99512.91;;;3.86;100.00
9899;BME280;4988;49.238;6.698;2023-12-20T06:39:20;99515.53;;;3.88;100.00
9899;BME280;4988;49.238;6.698;2023-12-20T06:41:45;99513.75;;;3.89;100.00
9899;BME280;4988;49.238;6.698;2023-12-20T06:44:15;99508.53;;;3.85;100.00
9899;BME280;4988;49.238;6.698;2023-12-20T06:46:41;99508.59;;;3.82;100.00
9899;BME280;4988;49.238;6.698;2023-12-20T06:49:06;99515.59;;;3.83;100.00
9899;BME280;4988;49.238;6.698;2023-12-20T06:51:31;99513.00;;;3.82;100.00
9899;BME280;4988;49.238;6.698;2023-12-20T06:53:57;99519.06;;;3.87;100.00
9899;BME280;4988;49.238;6.698;2023-12-20T06:56:22;99518.97;;;3.92;100.00
9899;BME280;4988;49.238;6.698;2023-12-20T06:58:47;99513.84;;;3.82;100.00
9899;BME280;4988;49.238;6.698;2023-12-20T07:01:13;99513.88;;;3.81;100.00
9899;BME280;4988;49.238;6.698;2023-12-20T07:03:39;99518.25;;;3.80;100.00
9899;BME280;4988;49.238;6.698;2023-12-20T07:06:05;99518.31;;;3.77;100.00
9899;BME280;4988;49.238;6.698;2023-12-20T07:08:31;99524.41;;;3.81;100.00
9899;BME280;4988;49.238;6.698;2023-12-20T07:10:56;99528.78;;;3.80;100.00
9899;BME280;4988;49.238;6.698;2023-12-20T07:13:21;99520.06;;;3.78;100.00
9899;BME280;4988;49.238;6.698;2023-12-20T07:15:48;99525.25;;;3.81;100.00
9899;BME280;4988;49.238;6.698;2023-12-20T07:18:13;99523.53;;;3.79;100.00
9899;BME280;4988;49.238;6.698;2023-12-20T07:20:38;99532.28;;;3.79;100.00
9899;BME280;4988;49.238;6.698;2023-12-20T07:23:04;99523.50;;;3.80;100.00
9899;BME280;4988;49.238;6.698;2023-12-20T07:25:29;99524.44;;;3.78;100.00
9899;BME280;4988;49.238;6.698;2023-12-20T07:27:57;99522.69;;;3.78;100.00
9899;BME280;4988;49.238;6.698;2023-12-20T07:30:22;99522.69;;;3.77;100.00
9899;BME280;4988;49.238;6.698;2023-12-20T07:32:48;99523.56;;;3.77;100.00
9899;BME280;4988;49.238;6.698;2023-12-20T07:35:13;99535.81;;;3.80;100.00
9899;BME280;4988;49.238;6.698;2023-12-20T07:37:38;99541.13;;;3.78;100.00
9899;BME280;4988;49.238;6.698;2023-12-20T07:40:04;99543.75;;;3.77;100.00
9899;BME280;4988;49.238;6.698;2023-12-20T07:42:30;99541.09;;;3.77;100.00
9899;BME280;4988;49.238;6.698;2023-12-20T07:44:55;99545.53;;;3.75;100.00
9899;BME280;4988;49.238;6.698;2023-12-20T07:47:20;99552.59;;;3.73;100.00
9899;BME280;4988;49.238;6.698;2023-12-20T07:49:51;99558.66;;;3.78;100.00
9899;BME280;4988;49.238;6.698;2023-12-20T07:52:19;99558.69;;;3.76;100.00
9899;BME280;4988;49.238;6.698;2023-12-20T07:54:45;99549.91;;;3.77;100.00
9899;BME280;4988;49.238;6.698;2023-12-20T07:57:10;99563.00;;;3.83;100.00
9899;BME280;4988;49.238;6.698;2023-12-20T07:59:36;99563.88;;;3.82;100.00
9899;BME280;4988;49.238;6.698;2023-12-20T08:02:01;99571.72;;;3.87;100.00
9899;BME280;4988;49.238;6.698;2023-12-20T08:04:27;99572.59;;;3.88;100.00
9899;BME280;4988;49.238;6.698;2023-12-20T08:06:52;99569.06;;;3.89;100.00
9899;BME280;4988;49.238;6.698;2023-12-20T08:09:17;99568.22;;;3.88;100.00
9899;BME280;4988;49.238;6.698;2023-12-20T08:11:47;99568.19;;;3.90;100.00
9899;BME280;4988;49.238;6.698;2023-12-20T08:14:12;99569.94;;;3.89;100.00
9899;BME280;4988;49.238;6.698;2023-12-20T08:16:37;99582.19;;;3.92;100.00
9899;BME280;4988;49.238;6.698;2023-12-20T08:19:03;99577.84;;;3.91;100.00
9899;BME280;4988;49.238;6.698;2023-12-20T08:21:28;99583.94;;;3.93;100.00
9899;BME280;4988;49.238;6.698;2023-12-20T08:23:53;99588.28;;;3.97;100.00
9899;BME280;4988;49.238;6.698;2023-12-20T08:26:19;99587.41;;;3.96;100.00
9899;BME280;4988;49.238;6.698;2023-12-20T08:28:49;99586.53;;;3.96;100.00
9899;BME280;4988;49.238;6.698;2023-12-20T08:31:15;99575.97;;;3.99;100.00
9899;BME280;4988;49.238;6.698;2023-12-20T08:33:45;99579.50;;;3.98;100.00
9899;BME280;4988;49.238;6.698;2023-12-20T08:36:11;99575.97;;;3.99;100.00
9899;BME280;4988;49.238;6.698;2023-12-20T08:38:37;99588.22;;;4.03;100.00
9899;BME280;4988;49.238;6.698;2023-12-20T08:41:02;99568.00;;;4.03;100.00
9899;BME280;4988;49.238;6.698;2023-12-20T08:43:30;99570.59;;;4.08;100.00
9899;BME280;4988;49.238;6.698;2023-12-20T08:45:56;99567.97;;;4.05;100.00
9899;BME280;4988;49.238;6.698;2023-12-20T08:48:21;99567.13;;;4.05;100.00
9899;BME280;4988;49.238;6.698;2023-12-20T08:50:46;99573.25;;;4.07;100.00
9899;BME280;4988;49.238;6.698;2023-12-20T08:53:13;99572.28;;;4.12;100.00
9899;BME280;4988;49.238;6.698;2023-12-20T08:55:40;99580.09;;;4.18;100.00
9899;BME280;4988;49.238;6.698;2023-12-20T08:58:06;99578.41;;;4.14;100.00
9899;BME280;4988;49.238;6.698;2023-12-20T09:00:33;99581.03;;;4.14;100.00
9899;BME280;4988;49.238;6.698;2023-12-20T09:02:58;99585.44;;;4.15;100.00
9899;BME280;4988;49.238;6.698;2023-12-20T09:05:24;99582.78;;;4.17;100.00
9899;BME280;4988;49.238;6.698;2023-12-20T09:07:50;99580.06;;;4.23;100.00
9899;BME280;4988;49.238;6.698;2023-12-20T09:10:15;99584.41;;;4.26;100.00
9899;BME280;4988;49.238;6.698;2023-12-20T09:12:40;99590.56;;;4.26;100.00
9899;BME280;4988;49.238;6.698;2023-12-20T09:15:08;99582.59;;;4.29;100.00
9899;BME280;4988;49.238;6.698;2023-12-20T09:17:33;99590.44;;;4.35;100.00
9899;BME280;4988;49.238;6.698;2023-12-20T09:19:58;99593.03;;;4.37;100.00
9899;BME280;4988;49.238;6.698;2023-12-20T09:22:25;99586.88;;;4.38;100.00
9899;BME280;4988;49.238;6.698;2023-12-20T09:24:50;99586.88;;;4.38;100.00
9899;BME280;4988;49.238;6.698;2023-12-20T09:27:16;99567.47;;;4.44;100.00
9899;BME280;4988;49.238;6.698;2023-12-20T09:29:41;99566.56;;;4.46;100.00
9899;BME280;4988;49.238;6.698;2023-12-20T09:32:06;99570.81;;;4.57;100.00
9899;BME280;4988;49.238;6.698;2023-12-20T09:34:32;99582.19;;;4.59;100.00
9899;BME280;4988;49.238;6.698;2023-12-20T09:36:57;99582.06;;;4.68;100.00
9899;BME280;4988;49.238;6.698;2023-12-20T09:39:23;99588.13;;;4.75;100.00
9899;BME280;4988;49.238;6.698;2023-12-20T09:42:00;99596.91;;;4.77;100.00
9899;BME280;4988;49.238;6.698;2023-12-20T09:44:26;99605.56;;;4.83;100.00
9899;BME280;4988;49.238;6.698;2023-12-20T09:46:52;99607.28;;;4.86;100.00
9899;BME280;4988;49.238;6.698;2023-12-20T09:49:19;99603.78;;;4.84;100.00
9899;BME280;4988;49.238;6.698;2023-12-20T09:51:46;99612.50;;;4.91;100.00
9899;BME280;4988;49.238;6.698;2023-12-20T09:54:14;99603.72;;;4.89;100.00
9899;BME280;4988;49.238;6.698;2023-12-20T09:56:40;99604.63;;;4.89;100.00
9899;BME280;4988;49.238;6.698;2023-12-20T09:59:06;99595.78;;;4.90;100.00
9899;BME280;4988;49.238;6.698;2023-12-20T10:01:31;99598.44;;;4.89;100.00
9899;BME280;4988;49.238;6.698;2023-12-20T10:03:59;99592.31;;;4.88;100.00
9899;BME280;4988;49.238;6.698;2023-12-20T10:06:25;99592.31;;;4.88;100.00
9899;BME280;4988;49.238;6.698;2023-12-20T10:08:50;99582.59;;;4.90;100.00
9899;BME280;4988;49.238;6.698;2023-12-20T10:11:16;99580.00;;;4.89;100.00
9899;BME280;4988;49.238;6.698;2023-12-20T10:13:43;99583.41;;;4.94;100.00
9899;BME280;4988;49.238;6.698;2023-12-20T10:16:08;99583.47;;;4.91;100.00
9899;BME280;4988;49.238;6.698;2023-12-20T10:18:34;99580.84;;;4.91;100.00
9899;BME280;4988;49.238;6.698;2023-12-20T10:21:00;99579.00;;;4.96;100.00
9899;BME280;4988;49.238;6.698;2023-12-20T10:23:25;99581.56;;;5.01;100.00
9899;BME280;4988;49.238;6.698;2023-12-20T10:25:58;99578.03;;;5.00;100.00
9899;BME280;4988;49.238;6.698;2023-12-20T10:28:23;99569.19;;;5.04;100.00
9899;BME280;4988;49.238;6.698;2023-12-20T10:30:53;99567.38;;;5.08;100.00
9899;BME280;4988;49.238;6.698;2023-12-20T10:33:26;99569.94;;;5.12;100.00
9899;BME280;4988;49.238;6.698;2023-12-20T10:35:52;99569.75;;;5.23;100.00
9899;BME280;4988;49.238;6.698;2023-12-20T10:38:18;99559.06;;;5.29;100.00
9899;BME280;4988;49.238;6.698;2023-12-20T10:40:45;99557.25;;;5.35;100.00
9899;BME280;4988;49.238;6.698;2023-12-20T10:43:11;99554.66;;;5.31;100.00
9899;BME280;4988;49.238;6.698;2023-12-20T10:45:36;99549.41;;;5.30;100.00
9899;BME280;4988;49.238;6.698;2023-12-20T10:48:02;99542.50;;;5.23;100.00
9899;BME280;4988;49.238;6.698;2023-12-20T10:50:28;99538.28;;;5.11;100.00
9899;BME280;4988;49.238;6.698;2023-12-20T10:52:55;99544.38;;;5.14;100.00
9899;BME280;4988;49.238;6.698;2023-12-20T10:55:24;99543.50;;;5.15;100.00
9899;BME280;4988;49.238;6.698;2023-12-20T10:58:00;99538.06;;;5.25;100.00
9899;BME280;4988;49.238;6.698;2023-12-20T11:00:26;99533.50;;;5.33;100.00
9899;BME280;4988;49.238;6.698;2023-12-20T11:02:53;99532.56;;;5.37;100.00
9899;BME280;4988;49.238;6.698;2023-12-20T11:05:58;99537.03;;;5.32;100.00
9899;BME280;4988;49.238;6.698;2023-12-20T11:11:12;99531.75;;;5.34;100.00
9899;BME280;4988;49.238;6.698;2023-12-20T11:13:44;99519.38;;;5.37;100.00
9899;BME280;4988;49.238;6.698;2023-12-20T11:16:13;99523.75;;;5.37;100.00
9899;BME280;4988;49.238;6.698;2023-12-20T11:18:40;99522.91;;;5.36;100.00
9899;BME280;4988;49.238;6.698;2023-12-20T11:21:05;99527.16;;;5.43;100.00
9899;BME280;4988;49.238;6.698;2023-12-20T11:23:35;99529.81;;;5.43;100.00
9899;BME280;4988;49.238;6.698;2023-12-20T11:26:02;99523.75;;;5.37;100.00
9899;BME280;4988;49.238;6.698;2023-12-20T11:28:28;99517.53;;;5.41;100.00
9899;BME280;4988;49.238;6.698;2023-12-20T11:30:56;99516.69;;;5.39;100.00
9899;BME280;4988;49.238;6.698;2023-12-20T11:33:26;99514.00;;;5.40;100.00
9899;BME280;4988;49.238;6.698;2023-12-20T11:35:55;99509.63;;;5.41;100.00
9899;BME280;4988;49.238;6.698;2023-12-20T11:38:21;99505.13;;;5.44;100.00
9899;BME280;4988;49.238;6.698;2023-12-20T11:40:48;99508.78;;;5.39;100.00
9899;BME280;4988;49.238;6.698;2023-12-20T11:43:34;99513.91;;;5.46;100.00
9899;BME280;4988;49.238;6.698;2023-12-20T11:46:04;99513.97;;;5.43;100.00
9899;BME280;4988;49.238;6.698;2023-12-20T11:48:31;99519.13;;;5.50;100.00
9899;BME280;4988;49.238;6.698;2023-12-20T11:50:57;99512.19;;;5.44;100.00
9899;BME280;4988;49.238;6.698;2023-12-20T11:53:22;99516.53;;;5.46;100.00
9899;BME280;4988;49.238;6.698;2023-12-20T11:55:51;99506.00;;;5.45;100.00
9899;BME280;4988;49.238;6.698;2023-12-20T11:58:16;99513.91;;;5.46;100.00
9899;BME280;4988;49.238;6.698;2023-12-20T12:00:42;99508.63;;;5.46;100.00
9899;BME280;4988;49.238;6.698;2023-12-20T12:03:14;99507.69;;;5.49;100.00
9899;BME280;4988;49.238;6.698;2023-12-20T12:05:40;99510.28;;;5.52;100.00
9899;BME280;4988;49.238;6.698;2023-12-20T12:08:05;99513.72;;;5.56;100.00
9899;BME280;4988;49.238;6.698;2023-12-20T12:10:31;99510.06;;;5.63;100.00
9899;BME280;4988;49.238;6.698;2023-12-20T12:12:56;99499.38;;;5.69;100.00
9899;BME280;4988;49.238;6.698;2023-12-20T12:15:21;99505.53;;;5.70;100.00
9899;BME280;4988;49.238;6.698;2023-12-20T12:17:56;99500.19;;;5.71;100.00
9899;BME280;4988;49.238;6.698;2023-12-20T12:20:23;99501.06;;;5.73;100.00
9899;BME280;4988;49.238;6.698;2023-12-20T12:23:02;99508.00;;;5.77;100.00
9899;BME280;4988;49.238;6.698;2023-12-20T12:25:29;99503.94;;;5.61;100.00
9899;BME280;4988;49.238;6.698;2023-12-20T12:27:55;99507.44;;;5.61;100.00
9899;BME280;4988;49.238;6.698;2023-12-20T12:30:21;99512.63;;;5.66;100.00
9899;BME280;4988;49.238;6.698;2023-12-20T12:32:46;99503.06;;;5.60;100.00
9899;BME280;4988;49.238;6.698;2023-12-20T12:35:11;99512.72;;;5.63;100.00
9899;BME280;4988;49.238;6.698;2023-12-20T12:37:41;99511.69;;;5.69;100.00
9899;BME280;4988;49.238;6.698;2023-12-20T12:40:12;99503.03;;;5.62;100.00
9899;BME280;4988;49.238;6.698;2023-12-20T12:42:38;99492.34;;;5.68;100.00
9899;BME280;4988;49.238;6.698;2023-12-20T12:45:05;99490.69;;;5.62;100.00
9899;BME280;4988;49.238;6.698;2023-12-20T12:47:30;99484.53;;;5.63;100.00
9899;BME280;4988;49.238;6.698;2023-12-20T12:49:56;99475.78;;;5.60;100.00
9899;BME280;4988;49.238;6.698;2023-12-20T12:52:21;99482.72;;;5.66;100.00
9899;BME280;4988;49.238;6.698;2023-12-20T12:54:47;99482.72;;;5.64;100.00
9899;BME280;4988;49.238;6.698;2023-12-20T12:57:14;99472.22;;;5.62;100.00
9899;BME280;4988;49.238;6.698;2023-12-20T12:59:40;99464.25;;;5.66;100.00
9899;BME280;4988;49.238;6.698;2023-12-20T13:02:05;99463.34;;;5.67;100.00
9899;BME280;4988;49.238;6.698;2023-12-20T13:04:31;99458.91;;;5.67;100.00
9899;BME280;4988;49.238;6.698;2023-12-20T13:06:56;99451.84;;;5.68;100.00
9899;BME280;4988;49.238;6.698;2023-12-20T13:09:22;99455.31;;;5.71;100.00
9899;BME280;4988;49.238;6.698;2023-12-20T13:11:48;99444.81;;;5.68;100.00
9899;BME280;4988;49.238;6.698;2023-12-20T13:14:13;99436.81;;;5.71;100.00
9899;BME280;4988;49.238;6.698;2023-12-20T13:16:41;99446.47;;;5.72;100.00
9899;BME280;4988;49.238;6.698;2023-12-20T13:19:06;99439.44;;;5.73;100.00